createdAt,value
2018-11-07T00:01:35.272Z,7.73
2018-11-07T00:06:38.552Z,7.80
2018-11-07T00:11:41.931Z,7.50
2018-11-07T00:16:45.209Z,8.47
2018-11-07T00:21:48.456Z,8.07
2018-11-07T00:26:51.748Z,9.10
2018-11-07T00:31:54.985Z,6.70
2018-11-07T00:36:58.251Z,7.80
2018-11-07T00:42:01.543Z,7.07
2018-11-07T00:47:04.943Z,7.70
2018-11-07T00:52:08.181Z,7.53
2018-11-07T00:57:11.435Z,7.97
2018-11-07T01:02:14.704Z,7.07
2018-11-07T01:07:17.944Z,7.00
2018-11-07T01:12:21.208Z,7.70
2018-11-07T01:17:24.449Z,6.67
2018-11-07T01:22:28.012Z,7.30
2018-11-07T01:27:31.264Z,7.27
2018-11-07T01:32:34.506Z,6.20
2018-11-07T01:37:37.862Z,7.10
2018-11-07T01:42:41.119Z,6.63
2018-11-07T01:47:44.466Z,6.80
2018-11-07T01:52:47.720Z,7.20
2018-11-07T01:57:50.987Z,6.70
2018-11-07T02:02:54.239Z,5.37
2018-11-07T02:07:57.488Z,5.83
2018-11-07T02:13:00.732Z,6.60
2018-11-07T02:18:04.220Z,6.80
2018-11-07T02:23:07.467Z,6.67
2018-11-07T02:28:10.724Z,6.60
2018-11-07T02:33:13.981Z,6.10
2018-11-07T02:38:17.241Z,5.90
2018-11-07T02:43:20.465Z,5.90
2018-11-07T02:48:23.701Z,6.00
2018-11-07T02:53:26.964Z,7.13
2018-11-07T02:58:30.190Z,5.90
2018-11-07T03:03:33.465Z,6.20
2018-11-07T03:08:43.512Z,5.77
2018-11-07T03:13:46.794Z,6.60
2018-11-07T03:18:56.849Z,6.00
2018-11-07T03:24:00.092Z,6.00
2018-11-07T03:29:03.617Z,6.33
2018-11-07T03:34:06.895Z,5.63
2018-11-07T03:39:11.149Z,5.30
2018-11-07T03:44:14.440Z,5.87
2018-11-07T03:49:17.709Z,6.27
2018-11-07T03:54:20.972Z,5.90
2018-11-07T03:59:24.220Z,5.23
2018-11-07T04:04:27.444Z,6.30
2018-11-07T04:09:30.696Z,5.00
2018-11-07T04:14:33.946Z,5.70
2018-11-07T04:19:37.178Z,5.90
2018-11-07T04:24:40.388Z,5.60
2018-11-07T04:29:43.633Z,5.40
2018-11-07T04:34:46.884Z,5.93
2018-11-07T04:39:50.112Z,5.47
2018-11-07T04:44:53.440Z,4.90
2018-11-07T04:49:56.672Z,4.60
2018-11-07T04:54:59.970Z,5.07
2018-11-07T05:00:03.333Z,5.57
2018-11-07T05:05:06.629Z,5.00
2018-11-07T05:10:10.877Z,4.90
2018-11-07T05:15:14.123Z,5.17
2018-11-07T05:20:17.340Z,4.43
2018-11-07T05:25:20.573Z,4.50
2018-11-07T05:30:23.823Z,4.63
2018-11-07T05:35:27.067Z,4.57
2018-11-07T05:40:30.298Z,5.10
2018-11-07T05:45:33.560Z,5.23
2018-11-07T05:50:36.791Z,5.50
2018-11-07T05:55:40.027Z,4.10
2018-11-07T06:00:43.281Z,4.77
2018-11-07T06:15:22.329Z,5.27
2018-11-07T06:20:25.651Z,5.23
2018-11-07T06:25:29.055Z,4.50
2018-11-07T06:30:32.459Z,4.63
2018-11-07T06:35:35.952Z,5.37
2018-11-07T06:40:39.380Z,5.10
2018-11-07T06:45:42.767Z,4.50
2018-11-07T06:50:46.146Z,5.20
2018-11-07T06:55:49.539Z,4.30
2018-11-07T07:00:52.917Z,4.40
2018-11-07T07:05:56.403Z,4.70
2018-11-07T07:10:59.771Z,4.17
2018-11-07T07:16:03.131Z,4.30
2018-11-07T07:21:13.005Z,4.37
2018-11-07T07:26:16.378Z,4.30
2018-11-07T07:31:19.747Z,4.23
2018-11-07T07:36:23.273Z,4.00
2018-11-07T07:41:26.611Z,4.10
2018-11-07T07:46:29.978Z,3.60
2018-11-07T07:51:33.490Z,4.00
2018-11-07T07:56:36.827Z,4.50
2018-11-07T08:01:40.203Z,3.73
2018-11-07T08:06:43.491Z,3.67
2018-11-07T08:11:46.901Z,4.13
2018-11-07T08:16:50.330Z,2.93
2018-11-07T08:22:00.284Z,3.40
2018-11-07T08:27:03.744Z,2.90
2018-11-07T08:32:07.160Z,2.80
2018-11-07T08:37:10.574Z,3.27
2018-11-07T08:42:14.036Z,2.57
2018-11-07T08:52:27.038Z,2.93
2018-11-07T08:57:30.440Z,2.93
2018-11-07T09:02:40.972Z,2.90
2018-11-07T09:07:45.256Z,2.47
2018-11-07T09:12:48.637Z,2.30
2018-11-07T09:17:52.063Z,2.40
2018-11-07T09:22:55.484Z,2.30
2018-11-07T09:27:58.841Z,2.37
2018-11-07T09:33:02.302Z,2.30
2018-11-07T09:38:05.911Z,2.67
2018-11-07T09:43:09.237Z,2.20
2018-11-07T09:48:12.659Z,2.40
2018-11-07T09:53:15.969Z,2.17
2018-11-07T09:58:19.449Z,2.33
2018-11-07T10:03:22.901Z,1.93
2018-11-07T10:08:32.717Z,1.67
2018-11-07T10:13:42.860Z,1.73
2018-11-07T10:18:46.284Z,1.60
2018-11-07T10:23:49.724Z,2.10
2018-11-07T10:28:53.369Z,2.10
2018-11-07T10:33:56.673Z,1.63
2018-11-07T10:39:00.381Z,1.67
2018-11-07T10:44:03.886Z,1.90
2018-11-07T10:49:07.468Z,2.23
2018-11-07T10:54:13.928Z,1.80
2018-11-07T10:59:17.427Z,1.83
2018-11-07T11:04:20.992Z,1.70
2018-11-07T11:09:24.489Z,1.47
2018-11-07T11:14:28.142Z,1.80
2018-11-07T11:19:31.789Z,1.80
2018-11-07T11:24:35.388Z,1.97
2018-11-07T11:29:38.944Z,1.50
2018-11-07T11:34:42.529Z,1.40
2018-11-07T11:39:46.046Z,2.17
2018-11-07T11:44:56.251Z,1.70
2018-11-07T11:49:59.944Z,1.50
2018-11-07T11:55:10.721Z,1.57
2018-11-07T12:00:16.961Z,1.60
2018-11-07T12:05:20.549Z,1.93
2018-11-07T12:10:25.219Z,1.50
2018-11-07T12:15:28.948Z,1.67
2018-11-07T12:20:32.400Z,1.80
2018-11-07T12:25:35.926Z,2.00
2018-11-07T12:30:39.477Z,1.40
2018-11-07T12:35:43.197Z,1.47
2018-11-07T12:40:48.370Z,1.27
2018-11-07T12:45:54.655Z,1.27
2018-11-07T13:00:43.531Z,1.40
2018-11-07T13:05:51.684Z,1.40
2018-11-07T13:10:58.423Z,1.70
2018-11-07T13:16:09.874Z,1.30
2018-11-07T13:21:15.277Z,1.20
2018-11-07T13:26:23.245Z,1.40
2018-11-07T13:31:31.095Z,1.40
2018-11-07T13:36:36.746Z,1.23
2018-11-07T13:41:43.069Z,1.70
2018-11-07T13:46:49.742Z,1.80
2018-11-07T13:51:58.500Z,1.23
2018-11-07T13:57:09.682Z,1.27
2018-11-07T14:02:17.573Z,1.40
2018-11-07T14:07:26.453Z,1.90
2018-11-07T14:12:34.947Z,1.33
2018-11-07T14:17:39.916Z,1.27
2018-11-07T14:22:51.261Z,1.27
2018-11-07T14:27:57.642Z,1.63
2018-11-07T14:33:04.496Z,1.40
2018-11-07T14:38:12.709Z,1.40
2018-11-07T14:43:17.454Z,1.57
2018-11-07T14:48:23.901Z,1.30
2018-11-07T15:03:11.452Z,1.50
2018-11-07T15:08:18.464Z,1.30
2018-11-07T15:13:26.067Z,1.70
2018-11-07T15:23:45.439Z,1.10
2018-11-07T15:28:55.121Z,1.30
2018-11-07T15:34:03.445Z,1.40
2018-11-07T15:39:12.621Z,1.53
2018-11-07T15:44:19.759Z,1.70
2018-11-07T15:49:28.191Z,1.00
2018-11-07T15:54:36.289Z,1.17
2018-11-07T15:59:42.230Z,1.30
2018-11-07T16:04:54.946Z,1.63
2018-11-07T16:10:07.360Z,1.30
2018-11-07T16:15:18.636Z,1.40
2018-11-07T16:20:27.879Z,1.63
2018-11-07T16:25:34.828Z,1.47
2018-11-07T16:30:49.267Z,1.23
2018-11-07T16:35:54.920Z,1.63
2018-11-07T16:41:01.903Z,1.67
2018-11-07T16:46:13.953Z,1.37
2018-11-07T16:51:19.659Z,1.50
2018-11-07T16:56:26.178Z,2.40
2018-11-07T17:01:31.738Z,2.20
2018-11-07T17:06:39.014Z,1.80
2018-11-07T17:11:46.605Z,1.60
2018-11-07T17:16:53.575Z,1.73
2018-11-07T17:21:59.127Z,1.70
2018-11-07T17:27:05.443Z,1.87
2018-11-07T17:32:13.971Z,1.87
2018-11-07T17:42:32.435Z,1.73
2018-11-07T17:47:40.454Z,2.10
2018-11-07T17:52:48.050Z,2.03
2018-11-07T17:58:00.988Z,2.03
2018-11-07T18:03:05.418Z,2.40
2018-11-07T18:08:09.924Z,2.50
2018-11-07T18:13:20.927Z,2.20
2018-11-07T18:18:25.410Z,1.87
2018-11-07T18:23:36.167Z,2.10
2018-11-07T18:28:40.768Z,2.03
2018-11-07T18:33:46.161Z,1.80
2018-11-07T18:38:50.797Z,1.60
2018-11-07T18:43:55.259Z,1.50
2018-11-07T18:48:59.788Z,2.37
2018-11-07T18:54:04.629Z,2.13
2018-11-07T18:59:08.874Z,2.60
2018-11-07T19:04:13.154Z,2.00
2018-11-07T19:09:23.729Z,2.00
2018-11-07T19:14:27.734Z,2.10
2018-11-07T19:19:32.271Z,1.77
2018-11-07T19:24:40.822Z,2.20
2018-11-07T19:29:45.150Z,2.17
2018-11-07T19:34:49.146Z,2.30
2018-11-07T19:39:53.393Z,1.80
2018-11-07T19:44:58.064Z,1.87
2018-11-07T19:50:02.499Z,2.40
2018-11-07T19:55:09.226Z,2.07
2018-11-07T20:00:15.184Z,2.27
2018-11-07T20:05:19.470Z,2.10
2018-11-07T20:10:23.891Z,2.00
2018-11-07T20:16:31.115Z,2.00
2018-11-07T20:21:35.181Z,2.00
2018-11-07T20:26:39.185Z,1.90
2018-11-07T20:31:43.314Z,2.23
2018-11-07T20:36:47.604Z,1.70
2018-11-07T20:41:51.691Z,1.90
2018-11-07T20:46:55.994Z,1.87
2018-11-07T20:52:00.251Z,2.07
2018-11-07T20:57:04.782Z,2.07
2018-11-07T21:02:09.247Z,1.73
2018-11-07T21:07:13.622Z,2.20
2018-11-07T21:12:19.139Z,2.30
2018-11-07T21:17:23.335Z,2.00
2018-11-07T21:22:32.349Z,2.10
2018-11-07T21:28:39.537Z,2.60
2018-11-07T21:33:43.823Z,2.10
2018-11-07T21:38:48.143Z,1.97
2018-11-07T21:43:52.787Z,2.03
2018-11-07T21:48:57.633Z,2.40
2018-11-07T21:54:02.155Z,1.80
2018-11-07T21:59:07.358Z,2.03
2018-11-07T22:04:12.568Z,1.80
2018-11-07T22:09:17.772Z,2.20
2018-11-07T22:14:22.594Z,2.67
2018-11-07T22:19:28.069Z,2.87
2018-11-07T22:24:33.484Z,1.83
2018-11-07T22:29:38.648Z,1.77
2018-11-07T22:34:43.098Z,2.30
2018-11-07T22:39:47.398Z,2.23
2018-11-07T22:44:51.594Z,2.20
2018-11-07T22:49:55.999Z,2.03
2018-11-07T22:55:00.690Z,2.70
2018-11-07T23:00:20.050Z,1.83
2018-11-07T23:05:28.155Z,2.17
2018-11-07T23:10:32.796Z,2.23
2018-11-07T23:15:42.112Z,2.20
2018-11-07T23:21:49.664Z,2.10
2018-11-07T23:26:54.219Z,2.00
2018-11-07T23:31:59.285Z,2.20
2018-11-07T23:37:03.691Z,2.40
2018-11-07T23:42:08.155Z,2.33
2018-11-07T23:47:12.590Z,2.20
2018-11-07T23:52:51.732Z,2.20
2018-11-07T23:57:56.124Z,1.73
